Time;durP1;ratioP1;P1;durP2;ratioP2;P2;SDS_P1;SDS_P2;PMS_P1;PMS_P2;Temp;Humidity;BMP_temperature;BMP_pressure;BME280_temperature;BME280_humidity;BME280_pressure;Samples;Min_cycle;Max_cycle;Signal;HPM_P1;HPM_P2
2022/04/20 00:00:34;;;;;;;7.25;3.28;;;17.80;49.70;;;;;;4977090;28;20129;-69
2022/04/20 00:02:59;;;;;;;5.40;3.35;;;17.80;49.60;;;;;;4994937;28;20025;-69
2022/04/20 00:05:25;;;;;;;6.13;2.80;;;17.70;49.70;;;;;;4994438;28;20022;-68
2022/04/20 00:07:51;;;;;;;3.95;3.03;;;17.70;49.70;;;;;;4994633;28;20029;-69
2022/04/20 00:10:16;;;;;;;5.60;3.35;;;17.70;49.90;;;;;;4994448;28;20061;-68
2022/04/20 00:12:42;;;;;;;5.68;3.22;;;17.60;49.90;;;;;;4994195;28;20026;-69
2022/04/20 00:15:08;;;;;;;5.25;2.97;;;17.60;49.90;;;;;;4994621;28;20018;-69
2022/04/20 00:17:34;;;;;;;6.03;2.95;;;17.60;49.90;;;;;;4993985;28;20032;-63
2022/04/20 00:20:00;;;;;;;5.97;3.22;;;17.50;50.10;;;;;;4994308;28;20125;-69
2022/04/20 00:22:25;;;;;;;4.43;2.60;;;17.50;50.20;;;;;;4994425;28;20042;-69
2022/04/20 00:24:51;;;;;;;3.40;2.78;;;17.40;50.20;;;;;;4994273;28;20057;-64
2022/04/20 00:27:16;;;;;;;5.68;2.78;;;17.40;50.20;;;;;;4994007;28;20047;-69
2022/04/20 00:29:42;;;;;;;5.55;3.28;;;17.40;50.20;;;;;;4993830;28;20038;-58
2022/04/20 00:32:08;;;;;;;6.63;3.17;;;17.40;50.10;;;;;;4994186;28;20511;-69
2022/04/20 00:34:33;;;;;;;6.03;3.08;;;17.30;50.10;;;;;;4994019;28;20202;-60
2022/04/20 00:36:59;;;;;;;3.22;2.88;;;17.30;50.20;;;;;;4994291;28;20058;-68
2022/04/20 00:39:25;;;;;;;5.07;2.88;;;17.30;50.20;;;;;;4994136;28;20523;-69
2022/04/20 00:41:52;;;;;;;5.93;2.45;;;17.30;50.00;;;;;;4993548;28;20026;-68
2022/04/20 00:44:19;;;;;;;3.53;3.20;;;17.30;50.00;;;;;;4993969;28;20021;-69
2022/04/20 00:46:46;;;;;;;8.05;2.80;;;17.30;50.10;;;;;;4976238;28;20431;-68
2022/04/20 00:49:13;;;;;;;5.55;3.10;;;17.30;50.00;;;;;;4993798;28;20039;-70
2022/04/20 00:51:59;;;;;;;4.70;2.80;;;17.20;50.20;;;;;;4993879;28;20054;-69
2022/04/20 00:54:25;;;;;;;4.75;3.35;;;17.10;50.30;;;;;;4977837;28;20022;-68
2022/04/20 00:56:51;;;;;;;3.35;2.60;;;17.10;50.40;;;;;;4993600;28;20026;-63
2022/04/20 00:59:22;;;;;;;4.32;3.08;;;17.10;50.40;;;;;;4993729;28;20037;-69
2022/04/20 01:01:48;;;;;;;3.90;3.30;;;17.10;50.40;;;;;;4993650;28;20403;-68
2022/04/20 01:04:14;;;;;;;4.00;2.97;;;17.10;50.40;;;;;;4993848;28;20054;-69
2022/04/20 01:06:40;;;;;;;3.38;3.08;;;17.10;50.40;;;;;;4993558;28;20135;-68
2022/04/20 01:09:05;;;;;;;5.38;3.28;;;17.00;50.60;;;;;;4993422;28;20034;-68
2022/04/20 01:11:31;;;;;;;4.63;2.88;;;17.10;50.60;;;;;;4993226;28;20022;-68
2022/04/20 01:13:57;;;;;;;5.25;2.90;;;17.00;50.50;;;;;;4993576;28;20033;-59
2022/04/20 01:16:23;;;;;;;4.53;2.92;;;17.00;50.60;;;;;;4993443;28;20130;-65
2022/04/20 01:18:49;;;;;;;3.88;2.80;;;17.00;50.50;;;;;;4993368;28;20505;-59
2022/04/20 01:21:15;;;;;;;4.53;3.30;;;17.00;50.60;;;;;;4993500;28;20523;-60
2022/04/20 01:23:40;;;;;;;3.40;3.10;;;16.80;50.80;;;;;;4993413;28;20069;-68
2022/04/20 01:26:07;;;;;;;4.40;2.78;;;16.80;50.70;;;;;;4975773;28;20046;-63
2022/04/20 01:28:34;;;;;;;6.68;3.20;;;16.90;50.80;;;;;;4994097;28;20113;-68
2022/04/20 01:31:00;;;;;;;5.60;3.42;;;16.90;50.70;;;;;;4997327;28;20029;-69
2022/04/20 01:33:25;;;;;;;3.28;2.97;;;16.90;50.70;;;;;;4997525;28;20027;-62
2022/04/20 01:35:51;;;;;;;3.97;2.88;;;16.90;50.70;;;;;;4997256;28;20022;-59
2022/04/20 01:38:17;;;;;;;3.70;3.33;;;16.70;50.80;;;;;;4997000;28;20031;-58
2022/04/20 01:40:42;;;;;;;4.85;3.30;;;16.70;50.80;;;;;;4997187;28;20027;-60
2022/04/20 01:43:08;;;;;;;5.95;3.50;;;16.80;50.80;;;;;;4997459;28;20447;-68
2022/04/20 01:45:33;;;;;;;4.85;3.00;;;16.80;50.70;;;;;;4997003;28;20022;-68
2022/04/20 01:47:59;;;;;;;6.47;3.55;;;16.80;50.70;;;;;;4997050;28;20507;-63
2022/04/20 01:50:24;;;;;;;4.28;3.47;;;16.70;50.60;;;;;;4997068;28;20511;-67
2022/04/20 01:52:50;;;;;;;7.45;3.15;;;16.80;50.70;;;;;;4996745;28;20495;-69
2022/04/20 01:55:16;;;;;;;4.40;2.90;;;16.60;50.80;;;;;;4997063;28;20027;-68
2022/04/20 01:57:42;;;;;;;5.47;3.38;;;16.70;50.90;;;;;;4997110;28;20048;-69
2022/04/20 02:00:08;;;;;;;3.92;2.72;;;16.60;51.00;;;;;;4997036;28;20030;-64
2022/04/20 02:02:40;;;;;;;4.15;3.17;;;16.60;50.80;;;;;;4996966;28;20090;-69
2022/04/20 02:05:11;;;;;;;3.53;3.03;;;16.40;51.20;;;;;;4996863;28;20027;-67
2022/04/20 02:07:37;;;;;;;4.60;3.10;;;16.50;51.10;;;;;;4996407;28;20028;-65
2022/04/20 02:10:04;;;;;;;6.97;3.47;;;16.50;51.10;;;;;;4996748;28;20033;-59
2022/04/20 02:12:30;;;;;;;3.40;3.00;;;16.50;51.10;;;;;;4996843;28;20029;-68
2022/04/20 02:14:56;;;;;;;4.32;3.28;;;16.50;51.00;;;;;;4991095;28;20027;-62
2022/04/20 02:17:22;;;;;;;4.20;3.22;;;16.50;51.20;;;;;;4995979;28;20027;-57
2022/04/20 02:19:48;;;;;;;4.53;2.90;;;16.40;51.20;;;;;;4995780;28;20038;-69
2022/04/20 02:22:14;;;;;;;5.50;3.05;;;16.40;51.10;;;;;;4994623;28;20022;-63
2022/04/20 02:24:39;;;;;;;4.90;3.00;;;16.40;51.30;;;;;;4996539;28;20083;-69
2022/04/20 02:27:05;;;;;;;3.67;2.97;;;16.10;51.50;;;;;;4996242;28;20031;-68
2022/04/20 02:29:31;;;;;;;4.53;3.10;;;16.10;51.70;;;;;;4996453;28;20062;-66
2022/04/20 02:31:56;;;;;;;3.85;3.15;;;16.20;51.70;;;;;;4996146;28;20030;-69
2022/04/20 02:34:22;;;;;;;3.75;3.28;;;16.20;51.50;;;;;;4996330;28;20030;-67
2022/04/20 02:36:48;;;;;;;4.03;3.35;;;16.30;51.40;;;;;;4995903;28;20490;-69
2022/04/20 02:39:14;;;;;;;5.03;3.40;;;16.30;51.60;;;;;;4996079;28;20041;-67
2022/04/20 02:41:41;;;;;;;4.40;3.17;;;16.30;51.40;;;;;;4996101;28;20033;-68
2022/04/20 02:44:07;;;;;;;6.10;3.38;;;16.30;51.40;;;;;;4996005;28;20073;-63
2022/04/20 02:46:34;;;;;;;3.50;3.00;;;16.30;51.50;;;;;;4996146;28;20468;-65
2022/04/20 02:49:00;;;;;;;6.22;3.88;;;16.20;51.50;;;;;;4995773;28;20044;-60
2022/04/20 02:51:26;;;;;;;4.47;3.33;;;16.30;51.60;;;;;;4995850;28;20050;-69
2022/04/20 02:53:51;;;;;;;9.00;3.35;;;16.20;51.70;;;;;;4995918;28;20058;-59
2022/04/20 02:56:17;;;;;;;5.22;3.20;;;16.20;51.70;;;;;;4995987;28;20018;-59
2022/04/20 02:58:42;;;;;;;4.85;3.38;;;16.20;51.70;;;;;;4995699;28;20034;-64
2022/04/20 03:01:08;;;;;;;3.88;2.97;;;16.20;52.20;;;;;;4995742;28;20030;-62
2022/04/20 03:03:34;;;;;;;3.50;3.15;;;16.20;51.70;;;;;;4995724;28;20030;-63
2022/04/20 03:06:00;;;;;;;3.58;3.20;;;16.10;51.60;;;;;;4977690;28;20460;-66
2022/04/20 03:08:26;;;;;;;4.90;2.90;;;16.10;51.80;;;;;;4995334;28;20043;-68
2022/04/20 03:10:52;;;;;;;3.53;3.05;;;16.00;51.70;;;;;;4995717;28;20033;-59
2022/04/20 03:13:18;;;;;;;7.07;2.88;;;16.00;51.80;;;;;;4995692;28;20168;-59
2022/04/20 03:15:44;;;;;;;4.53;3.05;;;16.10;51.80;;;;;;4995633;28;20015;-67
2022/04/20 03:18:10;;;;;;;4.13;3.03;;;16.00;51.80;;;;;;4995080;28;20499;-59
2022/04/20 03:20:36;;;;;;;5.20;3.10;;;16.00;52.00;;;;;;4995099;28;20042;-60
2022/04/20 03:23:02;;;;;;;3.30;2.85;;;16.00;52.00;;;;;;4995197;28;20014;-69
2022/04/20 03:25:28;;;;;;;6.55;3.15;;;15.90;51.90;;;;;;4995574;28;20026;-60
2022/04/20 03:27:53;;;;;;;6.22;3.70;;;15.90;52.00;;;;;;4995208;28;20416;-69
2022/04/20 03:30:19;;;;;;;6.43;3.10;;;16.00;52.00;;;;;;4995202;28;20437;-60
2022/04/20 03:32:45;;;;;;;4.25;3.05;;;15.90;52.00;;;;;;4995101;28;20476;-60
2022/04/20 03:35:11;;;;;;;10.57;3.20;;;15.90;51.90;;;;;;4994949;28;20431;-60
2022/04/20 03:37:37;;;;;;;2.88;2.58;;;15.90;53.30;;;;;;4995301;28;20361;-66
2022/04/20 03:40:04;;;;;;;6.80;2.85;;;15.90;53.80;;;;;;4995008;28;20030;-69
2022/04/20 03:42:29;;;;;;;3.55;2.90;;;15.90;53.10;;;;;;4995090;28;20022;-68
2022/04/20 03:44:55;;;;;;;5.80;2.72;;;15.90;53.10;;;;;;4994671;28;20491;-59
2022/04/20 03:47:20;;;;;;;5.50;3.35;;;15.90;52.80;;;;;;4995155;28;20467;-67
2022/04/20 03:49:46;;;;;;;5.43;3.10;;;16.00;52.60;;;;;;4994406;28;20476;-68
2022/04/20 03:52:11;;;;;;;3.17;2.88;;;16.00;52.80;;;;;;4994012;28;20033;-60
2022/04/20 03:54:37;;;;;;;3.63;2.90;;;15.90;52.60;;;;;;4994710;28;20022;-69
2022/04/20 03:57:03;;;;;;;3.88;2.72;;;16.00;52.80;;;;;;4994769;28;20030;-69
2022/04/20 03:59:33;;;;;;;3.70;2.90;;;15.90;52.70;;;;;;4994753;28;20026;-60
2022/04/20 04:01:59;;;;;;;4.05;3.03;;;16.00;52.70;;;;;;4994426;28;20058;-68
2022/04/20 04:04:25;;;;;;;2.95;2.60;;;15.90;52.50;;;;;;4994338;28;20416;-65
2022/04/20 04:06:51;;;;;;;3.05;2.70;;;15.90;52.50;;;;;;4994936;28;20028;-62
2022/04/20 04:09:17;;;;;;;5.45;3.03;;;15.90;52.60;;;;;;4994423;28;20109;-68
2022/04/20 04:11:43;;;;;;;3.80;3.38;;;15.90;52.60;;;;;;4994500;28;20026;-69
2022/04/20 04:14:08;;;;;;;6.72;2.90;;;15.90;52.80;;;;;;4994273;28;20113;-68
2022/04/20 04:16:36;;;;;;;5.30;3.20;;;15.80;52.60;;;;;;4976889;28;20022;-60
2022/04/20 04:19:08;;;;;;;8.40;2.88;;;15.90;52.80;;;;;;4976481;28;20361;-62
2022/04/20 04:21:40;;;;;;;6.35;2.80;;;15.80;52.70;;;;;;4994315;28;20388;-59
2022/04/20 04:24:08;;;;;;;8.27;3.72;;;15.80;52.70;;;;;;4994206;28;20053;-68
2022/04/20 04:26:34;;;;;;;6.80;3.25;;;15.80;52.70;;;;;;4994319;28;20019;-68
2022/04/20 04:29:00;;;;;;;5.90;3.47;;;15.80;52.90;;;;;;4993909;28;20030;-69
2022/04/20 04:31:26;;;;;;;4.68;3.53;;;15.80;52.70;;;;;;4994248;28;20429;-62
2022/04/20 04:33:52;;;;;;;6.63;3.20;;;15.80;52.80;;;;;;4994005;28;20034;-60
2022/04/20 04:36:18;;;;;;;6.60;3.35;;;15.80;52.80;;;;;;4994180;28;20113;-68
2022/04/20 04:38:44;;;;;;;8.68;3.85;;;15.80;52.90;;;;;;4994143;28;20065;-69
2022/04/20 04:41:09;;;;;;;5.10;3.03;;;15.80;52.70;;;;;;4993752;28;20073;-63
2022/04/20 04:43:35;;;;;;;6.28;3.63;;;15.70;52.90;;;;;;4993976;28;20534;-68
2022/04/20 04:48:48;;;;;;;8.45;3.90;;;15.70;53.10;;;;;;4992719;28;20207;-67
2022/04/20 04:51:15;;;;;;;5.85;3.70;;;15.70;53.00;;;;;;4992429;28;20135;-60
2022/04/20 04:53:41;;;;;;;5.32;3.38;;;15.70;53.20;;;;;;4981615;28;20031;-65
2022/04/20 04:56:07;;;;;;;5.30;3.75;;;15.70;53.20;;;;;;4985012;28;20372;-63
2022/04/20 04:58:33;;;;;;;6.95;3.80;;;15.60;53.00;;;;;;4992186;28;20105;-63
2022/04/20 05:00:58;;;;;;;5.82;3.83;;;15.40;53.20;;;;;;4988679;28;20039;-63
2022/04/20 05:03:25;;;;;;;4.70;3.47;;;15.40;53.50;;;;;;4991667;28;20022;-63
2022/04/20 05:05:51;;;;;;;5.47;3.55;;;15.30;53.60;;;;;;4991127;28;20464;-62
2022/04/20 05:08:17;;;;;;;10.57;3.47;;;15.20;53.80;;;;;;4985295;28;20054;-61
2022/04/20 05:10:42;;;;;;;6.97;4.07;;;15.10;53.90;;;;;;4988829;28;20578;-65
2022/04/20 05:13:08;;;;;;;5.38;3.33;;;15.20;54.00;;;;;;4989929;28;20467;-62
2022/04/20 05:15:34;;;;;;;4.78;3.50;;;14.90;54.10;;;;;;4992842;28;20026;-67
2022/04/20 05:18:00;;;;;;;7.28;3.95;;;15.10;54.20;;;;;;4986474;28;20469;-63
2022/04/20 05:20:26;;;;;;;4.90;3.58;;;15.10;54.00;;;;;;4994256;28;20053;-63
2022/04/20 05:22:52;;;;;;;6.45;3.80;;;15.10;54.10;;;;;;4993296;28;20026;-63
2022/04/20 05:25:18;;;;;;;10.50;3.90;;;15.10;53.80;;;;;;4975336;28;20103;-66
2022/04/20 05:27:44;;;;;;;5.82;3.63;;;15.20;53.90;;;;;;4985198;28;20102;-63
2022/04/20 05:30:13;;;;;;;10.63;4.03;;;15.20;53.80;;;;;;4992816;28;20038;-66
2022/04/20 05:32:39;;;;;;;6.05;3.60;;;15.30;53.70;;;;;;4979190;28;20102;-64
2022/04/20 05:35:05;;;;;;;7.28;3.85;;;15.30;53.60;;;;;;4988859;28;20503;-62
2022/04/20 05:42:59;;;;;;;4.72;3.45;;;15.20;53.70;;;;;;4989892;28;20050;-66
2022/04/20 05:45:25;;;;;;;4.70;3.85;;;15.20;53.60;;;;;;4982971;28;20027;-65
2022/04/20 05:47:52;;;;;;;6.72;4.07;;;15.10;53.70;;;;;;4982058;28;20045;-66
2022/04/20 05:50:17;;;;;;;4.10;3.70;;;14.80;54.50;;;;;;4984217;28;20088;-66
2022/04/20 05:52:43;;;;;;;10.48;4.40;;;14.60;55.00;;;;;;4989693;28;20109;-66
2022/04/20 05:55:09;;;;;;;6.07;3.60;;;14.40;55.10;;;;;;4988701;28;20054;-64
2022/04/20 05:57:35;;;;;;;6.07;3.67;;;14.40;55.30;;;;;;4990939;28;20038;-66
2022/04/20 06:00:00;;;;;;;6.78;4.07;;;14.50;55.10;;;;;;4990832;28;20109;-64
2022/04/20 06:02:26;;;;;;;6.18;3.78;;;14.80;54.90;;;;;;4984203;28;20025;-65
2022/04/20 06:04:51;;;;;;;5.53;3.60;;;14.80;54.60;;;;;;4991412;28;20114;-62
2022/04/20 06:07:18;;;;;;;8.52;3.95;;;14.80;54.70;;;;;;4989847;28;20058;-63
2022/04/20 06:09:43;;;;;;;4.72;3.28;;;14.70;54.90;;;;;;4984709;28;20035;-64
2022/04/20 06:12:09;;;;;;;9.00;3.70;;;14.60;54.90;;;;;;4984335;28;20089;-63
2022/04/20 06:14:34;;;;;;;5.57;3.58;;;14.70;55.00;;;;;;4989291;28;20066;-66
2022/04/20 06:17:00;;;;;;;4.85;3.80;;;14.90;54.70;;;;;;4996234;28;20022;-67
2022/04/20 06:19:25;;;;;;;8.55;4.43;;;14.80;54.60;;;;;;4995812;28;20038;-66
2022/04/20 06:21:51;;;;;;;6.72;3.80;;;14.80;54.90;;;;;;4996157;28;20022;-66
2022/04/20 06:24:16;;;;;;;6.72;3.78;;;14.90;54.70;;;;;;4996026;28;20424;-66
2022/04/20 06:26:42;;;;;;;5.25;3.60;;;15.00;54.60;;;;;;4995152;28;20080;-66
2022/04/20 06:29:10;;;;;;;3.53;3.05;;;15.00;54.60;;;;;;4995232;28;20030;-66
2022/04/20 06:31:35;;;;;;;6.18;3.60;;;15.00;54.30;;;;;;4994628;28;20482;-67
2022/04/20 06:34:02;;;;;;;6.80;4.20;;;14.90;54.40;;;;;;4996129;28;20530;-66
2022/04/20 06:36:28;;;;;;;7.13;3.85;;;14.80;54.50;;;;;;4995791;28;20014;-66
2022/04/20 06:38:53;;;;;;;7.50;3.30;;;14.90;54.70;;;;;;4996126;28;20049;-65
2022/04/20 06:41:19;;;;;;;7.70;3.40;;;14.90;54.70;;;;;;4978347;28;20030;-65
2022/04/20 06:43:45;;;;;;;7.13;4.15;;;15.10;54.40;;;;;;4995658;28;20031;-67
2022/04/20 06:46:10;;;;;;;4.45;3.65;;;14.90;54.30;;;;;;4995800;28;20027;-66
2022/04/20 06:48:36;;;;;;;5.95;3.65;;;14.90;54.80;;;;;;4995572;28;20068;-65
2022/04/20 06:51:02;;;;;;;7.57;3.75;;;14.80;54.60;;;;;;4996161;28;20113;-67
2022/04/20 06:59:13;;;;;;;4.50;3.55;;;14.80;54.60;;;;;;4935580;29;20541;-66
2022/04/20 07:01:38;;;;;;;5.50;3.58;;;14.80;54.70;;;;;;4983356;28;20039;-66
2022/04/20 07:04:05;;;;;;;5.82;3.88;;;14.80;54.70;;;;;;4995847;28;20584;-67
2022/04/20 07:06:31;;;;;;;5.57;3.85;;;14.80;54.40;;;;;;4995785;28;20053;-66
2022/04/20 07:08:57;;;;;;;5.93;3.97;;;14.80;54.60;;;;;;4995509;28;20452;-62
2022/04/20 07:11:22;;;;;;;5.43;3.95;;;14.70;54.80;;;;;;4995671;28;20026;-63
2022/04/20 07:13:48;;;;;;;6.90;4.00;;;14.70;54.80;;;;;;4995240;28;20034;-66
2022/04/20 07:16:14;;;;;;;5.90;4.20;;;14.80;54.90;;;;;;4995646;28;20027;-64
2022/04/20 07:18:39;;;;;;;5.93;3.78;;;14.80;55.00;;;;;;4995249;28;20085;-67
2022/04/20 07:21:05;;;;;;;6.90;4.22;;;14.90;54.80;;;;;;4995429;28;20042;-66
2022/04/20 07:23:31;;;;;;;10.05;4.18;;;14.90;54.90;;;;;;4995457;28;20019;-65
2022/04/20 07:25:57;;;;;;;6.00;4.53;;;15.00;54.70;;;;;;4994827;28;20472;-66
2022/04/20 07:28:22;;;;;;;6.07;3.75;;;15.00;54.40;;;;;;4994527;28;20074;-65
2022/04/20 07:30:48;;;;;;;5.53;4.70;;;15.10;54.30;;;;;;4995256;28;20030;-66
2022/04/20 07:33:15;;;;;;;12.30;4.78;;;15.00;55.00;;;;;;4995497;28;20052;-65
2022/04/20 07:35:42;;;;;;;6.50;3.92;;;15.10;54.60;;;;;;4995402;28;20023;-66
2022/04/20 07:38:08;;;;;;;6.00;4.60;;;15.20;54.40;;;;;;4995220;28;20030;-67
2022/04/20 07:40:34;;;;;;;29.30;8.30;;;15.30;54.00;;;;;;4995009;28;20491;-63
2022/04/20 07:42:59;;;;;;;6.18;4.35;;;15.30;54.30;;;;;;4994780;28;20463;-65
2022/04/20 07:45:25;;;;;;;10.85;4.13;;;15.30;53.80;;;;;;4995178;28;20471;-67
2022/04/20 07:47:53;;;;;;;6.57;3.65;;;15.30;53.80;;;;;;4995091;28;20028;-67
2022/04/20 07:50:18;;;;;;;4.63;3.67;;;15.40;53.80;;;;;;4994425;28;20061;-66
2022/04/20 07:52:50;;;;;;;7.28;4.03;;;15.40;53.70;;;;;;4994552;28;20026;-63
2022/04/20 07:55:21;;;;;;;7.05;4.13;;;15.50;53.80;;;;;;4993900;28;20026;-66
2022/04/20 07:57:47;;;;;;;8.48;4.05;;;15.60;53.60;;;;;;4994528;28;20017;-62
2022/04/20 08:00:14;;;;;;;5.47;4.10;;;15.50;53.10;;;;;;4994158;28;20050;-67
2022/04/20 08:02:41;;;;;;;4.45;3.90;;;15.60;53.40;;;;;;4994391;28;20030;-63
2022/04/20 08:05:07;;;;;;;5.35;4.10;;;15.50;53.60;;;;;;4994165;28;20033;-63
2022/04/20 08:07:34;;;;;;;6.95;3.65;;;15.50;53.50;;;;;;4994270;28;20022;-63
2022/04/20 08:10:00;;;;;;;5.82;3.70;;;15.60;53.10;;;;;;4993574;28;20030;-63
2022/04/20 08:12:28;;;;;;;6.45;4.28;;;15.70;53.40;;;;;;4994153;28;20034;-63
2022/04/20 08:14:54;;;;;;;7.32;4.32;;;15.60;52.90;;;;;;4994162;28;20105;-65
2022/04/20 08:17:20;;;;;;;9.23;4.28;;;15.70;53.10;;;;;;4994306;28;20031;-63
2022/04/20 08:19:45;;;;;;;9.52;4.32;;;15.70;52.70;;;;;;4993654;28;20034;-62
2022/04/20 08:22:13;;;;;;;8.48;4.10;;;15.60;53.10;;;;;;4993995;28;20026;-64
2022/04/20 08:24:38;;;;;;;6.30;4.20;;;15.70;53.10;;;;;;4993586;28;20045;-63
2022/04/20 08:27:04;;;;;;;6.72;4.13;;;15.80;53.10;;;;;;4994465;28;20023;-63
2022/04/20 08:29:30;;;;;;;6.72;3.90;;;15.80;52.70;;;;;;4993595;28;20042;-65
2022/04/20 08:31:55;;;;;;;9.18;4.68;;;15.70;52.80;;;;;;4993867;28;20093;-63
2022/04/20 08:34:21;;;;;;;7.18;4.18;;;15.80;52.90;;;;;;4993626;28;20484;-67
2022/04/20 08:36:46;;;;;;;8.70;4.25;;;15.80;52.70;;;;;;4993671;28;20429;-64
2022/04/20 08:39:12;;;;;;;4.97;4.10;;;15.80;52.60;;;;;;4993107;28;20022;-65
2022/04/20 08:41:39;;;;;;;8.30;4.47;;;15.90;52.80;;;;;;4993475;28;20030;-65
2022/04/20 08:44:07;;;;;;;8.80;4.18;;;15.90;52.50;;;;;;4993788;28;20026;-65
2022/04/20 08:46:38;;;;;;;9.05;4.18;;;15.90;52.30;;;;;;4993274;28;20037;-66
2022/04/20 08:49:04;;;;;;;10.32;4.38;;;15.80;52.40;;;;;;4993398;28;20089;-64
2022/04/20 08:52:37;;;;;;;10.57;4.40;;;15.80;52.50;;;;;;4993270;28;20547;-64
2022/04/20 08:54:18;;;;;;;6.35;4.38;;;15.80;52.50;;;;;;4992972;28;20034;-66
2022/04/20 08:59:31;;;;;;;13.18;4.63;;;15.90;52.50;;;;;;4993701;28;20154;-67
2022/04/20 09:02:02;;;;;;;10.32;4.63;;;16.00;52.60;;;;;;4993242;28;20053;-67
2022/04/20 09:04:27;;;;;;;8.65;4.30;;;16.00;52.40;;;;;;4993337;28;20045;-67
2022/04/20 09:06:54;;;;;;;6.93;4.65;;;16.00;52.80;;;;;;4993489;28;20472;-66
2022/04/20 09:09:25;;;;;;;8.25;4.43;;;16.00;52.10;;;;;;4993500;28;20022;-65
2022/04/20 09:11:51;;;;;;;8.40;4.55;;;16.00;51.90;;;;;;4993596;28;20085;-66
2022/04/20 09:14:16;;;;;;;4.75;4.20;;;16.10;51.40;;;;;;4993654;28;20468;-67
2022/04/20 09:16:43;;;;;;;6.57;3.90;;;16.10;51.70;;;;;;4993335;28;20105;-67
2022/04/20 09:19:09;;;;;;;11.55;4.50;;;16.20;51.80;;;;;;4993731;28;20387;-67
2022/04/20 09:21:35;;;;;;;7.88;4.60;;;16.20;51.70;;;;;;4993343;28;20502;-66
2022/04/20 09:24:06;;;;;;;9.70;3.95;;;16.20;51.10;;;;;;4993452;28;20022;-67
2022/04/20 09:26:31;;;;;;;6.53;4.13;;;16.20;50.50;;;;;;4975755;28;20846;-67
2022/04/20 09:29:07;;;;;;;6.22;2.55;;;16.20;50.70;;;;;;4993518;28;20491;-74
2022/04/20 09:31:51;;;;;;;3.03;1.90;;;16.50;48.10;;;;;;4993421;28;20037;-74
2022/04/20 09:34:29;;;;;;;4.70;2.55;;;16.80;48.40;;;;;;4993459;28;20431;-74
2022/04/20 09:36:55;;;;;;;3.20;2.08;;;16.90;49.40;;;;;;4993101;28;20387;-73
2022/04/20 09:39:22;;;;;;;3.05;2.65;;;17.00;47.60;;;;;;4993349;28;20027;-64
2022/04/20 09:42:02;;;;;;;3.25;2.47;;;17.10;48.30;;;;;;4993325;28;20085;-74
2022/04/20 09:44:29;;;;;;;2.22;2.03;;;17.10;48.10;;;;;;4993599;28;20395;-75
2022/04/20 09:49:58;;;;;;;3.58;2.22;;;17.20;48.00;;;;;;4994175;28;20053;-74
2022/04/20 09:52:40;;;;;;;3.58;2.45;;;17.30;48.40;;;;;;4996781;28;20101;-73
2022/04/20 09:55:06;;;;;;;3.83;2.58;;;17.40;47.70;;;;;;4997105;28;20038;-74
2022/04/20 09:57:37;;;;;;;4.15;2.25;;;17.40;47.90;;;;;;4997048;28;20026;-75
2022/04/20 10:00:11;;;;;;;4.93;2.90;;;17.40;47.90;;;;;;4997095;28;20418;-75
2022/04/20 10:02:57;;;;;;;2.47;2.20;;;17.40;46.70;;;;;;4979120;28;20061;-74
2022/04/20 10:05:23;;;;;;;2.53;2.20;;;17.50;47.90;;;;;;4996793;28;20027;-74
2022/04/20 10:07:51;;;;;;;5.28;2.38;;;17.50;46.50;;;;;;4996240;28;20027;-75
2022/04/20 10:10:17;;;;;;;4.22;2.58;;;17.50;47.10;;;;;;4996715;28;20072;-76
2022/04/20 10:12:43;;;;;;;4.22;2.60;;;17.50;47.60;;;;;;4996530;28;20057;-74
2022/04/20 10:17:56;;;;;;;3.03;2.58;;;17.60;47.40;;;;;;4992848;28;20546;-74
2022/04/20 10:20:25;;;;;;;5.05;2.40;;;17.60;47.70;;;;;;4995629;28;20121;-74
2022/04/20 10:22:51;;;;;;;4.10;2.35;;;17.60;47.40;;;;;;4995795;28;20085;-68
2022/04/20 10:25:17;;;;;;;6.55;3.88;;;17.60;48.80;;;;;;4983266;28;20114;-67
2022/04/20 10:27:57;;;;;;;8.73;4.15;;;17.60;47.70;;;;;;4981771;28;20050;-66
2022/04/20 10:30:44;;;;;;;8.65;4.05;;;17.50;47.70;;;;;;4993028;28;20036;-67
2022/04/20 10:33:14;;;;;;;6.75;3.53;;;17.40;47.40;;;;;;4981903;28;20034;-67
2022/04/20 10:36:01;;;;;;;7.80;4.05;;;17.30;47.70;;;;;;4990492;28;20045;-67
2022/04/20 10:38:31;;;;;;;8.15;3.65;;;17.20;48.20;;;;;;4987136;28;20041;-66
2022/04/20 10:41:09;;;;;;;5.80;3.55;;;17.20;48.60;;;;;;4973446;28;20034;-67
2022/04/20 10:43:39;;;;;;;9.35;3.83;;;17.30;48.30;;;;;;4977983;28;20423;-67
2022/04/20 10:46:16;;;;;;;6.68;3.60;;;17.30;48.30;;;;;;4984499;28;20026;-67
2022/04/20 10:48:52;;;;;;;11.38;3.53;;;17.30;47.90;;;;;;4992869;28;20038;-63
2022/04/20 10:51:30;;;;;;;5.55;3.28;;;17.30;48.00;;;;;;4995231;28;20034;-63
2022/04/20 10:54:22;;;;;;;5.05;3.35;;;17.30;48.40;;;;;;4995384;28;20030;-67
2022/04/20 10:57:07;;;;;;;6.75;3.58;;;17.30;47.50;;;;;;4994568;28;20023;-67
2022/04/20 10:59:33;;;;;;;5.65;3.60;;;17.30;47.10;;;;;;4994802;28;20034;-66
2022/04/20 11:01:58;;;;;;;4.85;3.53;;;17.20;47.10;;;;;;4995003;28;20371;-67
2022/04/20 11:04:50;;;;;;;6.13;2.90;;;17.30;47.60;;;;;;4994262;28;20034;-64
2022/04/20 11:07:30;;;;;;;4.90;3.10;;;17.30;47.60;;;;;;4984890;28;20034;-63
2022/04/20 11:10:02;;;;;;;4.65;3.08;;;17.30;47.50;;;;;;4987982;28;20039;-66
2022/04/20 11:18:45;;;;;;;5.00;2.83;;;17.40;47.60;;;;;;4985328;28;20077;-66
2022/04/20 11:21:11;;;;;;;6.45;2.95;;;17.40;46.80;;;;;;5002465;28;20033;-66
2022/04/20 11:24:05;;;;;;;14.43;3.33;;;17.40;47.00;;;;;;5002036;28;20037;-65
2022/04/20 11:26:49;;;;;;;8.30;2.95;;;17.40;47.20;;;;;;4989370;28;20062;-65
2022/04/20 11:29:19;;;;;;;7.07;2.53;;;17.40;47.90;;;;;;4974265;28;20488;-66
2022/04/20 11:31:47;;;;;;;5.75;3.10;;;17.30;47.20;;;;;;4991308;28;20030;-67
2022/04/20 11:34:15;;;;;;;7.13;3.13;;;17.30;47.80;;;;;;4991328;28;20023;-66
2022/04/20 11:36:46;;;;;;;4.88;3.15;;;17.40;47.50;;;;;;4989613;28;20031;-66
2022/04/20 11:39:13;;;;;;;6.57;2.90;;;17.50;47.40;;;;;;4974727;28;20030;-65
2022/04/20 11:41:47;;;;;;;5.95;3.40;;;17.50;47.70;;;;;;4984488;28;20101;-66
2022/04/20 11:44:24;;;;;;;4.82;3.20;;;17.50;47.40;;;;;;4994613;28;20030;-65
2022/04/20 11:47:00;;;;;;;7.18;3.38;;;17.60;47.50;;;;;;4994474;28;20034;-65
2022/04/20 11:49:33;;;;;;;4.15;3.40;;;17.60;48.90;;;;;;4986923;28;20094;-68
2022/04/20 11:51:59;;;;;;;;;;;17.70;48.30;;;;;;4981255;28;20084;-66
2022/04/20 11:54:27;;;;;;;7.40;3.38;;;17.60;47.60;;;;;;4987365;28;19914;-66
2022/04/20 11:56:53;;;;;;;6.82;3.50;;;17.70;48.10;;;;;;4982731;28;20495;-66
2022/04/20 11:59:19;;;;;;;9.05;3.88;;;17.70;47.80;;;;;;4991216;28;20069;-65
2022/04/20 12:01:46;;;;;;;7.18;4.07;;;17.70;47.70;;;;;;4992995;28;20037;-63
2022/04/20 12:04:16;;;;;;;5.05;3.20;;;17.80;48.00;;;;;;4993672;28;20472;-67
2022/04/20 12:06:49;;;;;;;5.80;3.42;;;17.80;48.00;;;;;;4987453;28;20109;-65
2022/04/20 12:09:18;;;;;;;4.78;2.97;;;17.90;48.00;;;;;;4991059;28;20046;-62
2022/04/20 12:11:44;;;;;;;12.18;3.22;;;17.90;47.80;;;;;;4987238;28;20026;-66
2022/04/20 12:14:09;;;;;;;7.20;3.58;;;17.90;49.80;;;;;;4985540;28;20045;-66
2022/04/20 12:16:36;;;;;;;7.22;3.88;;;18.00;47.70;;;;;;4984036;28;20026;-65
2022/04/20 12:19:01;;;;;;;7.70;3.90;;;18.00;48.00;;;;;;4991350;28;20039;-64
2022/04/20 12:21:44;;;;;;;6.60;3.30;;;18.00;47.50;;;;;;4990690;28;20069;-66
2022/04/20 12:24:26;;;;;;;;;;;18.00;47.50;;;;;;4992809;28;20065;-66
2022/04/20 12:26:54;;;;;;;6.43;3.22;;;17.90;48.60;;;;;;4991945;28;20378;-63
2022/04/20 12:29:21;;;;;;;6.93;3.85;;;18.00;48.20;;;;;;4993858;28;20547;-65
2022/04/20 12:31:49;;;;;;;8.35;4.20;;;18.00;48.00;;;;;;4993445;28;20072;-65
2022/04/20 12:34:17;;;;;;;9.45;3.65;;;18.00;47.40;;;;;;4987593;28;20030;-64
2022/04/20 12:36:55;;;;;;;5.18;3.60;;;18.00;48.30;;;;;;4989428;28;20057;-61
2022/04/20 12:39:31;;;;;;;7.85;4.00;;;18.00;48.00;;;;;;4985903;28;20033;-62
2022/04/20 12:41:59;;;;;;;6.32;4.03;;;18.10;47.60;;;;;;4986996;28;20110;-65
2022/04/20 12:44:52;;;;;;;9.57;3.75;;;18.00;48.10;;;;;;4992620;28;20014;-66
2022/04/20 12:47:18;;;;;;;11.45;3.60;;;18.10;47.90;;;;;;4991497;28;20037;-63
2022/04/20 12:50:11;;;;;;;4.78;2.92;;;18.10;47.50;;;;;;4992342;28;20069;-65
2022/04/20 12:52:37;;;;;;;6.75;2.63;;;18.10;48.80;;;;;;4990858;28;20054;-64
2022/04/20 12:55:10;;;;;;;7.22;3.72;;;18.10;49.70;;;;;;4992120;28;20053;-64
2022/04/20 13:03:10;;;;;;;8.40;3.70;;;18.10;48.10;;;;;;4986463;28;20069;-62
2022/04/20 13:05:40;;;;;;;7.13;3.63;;;18.10;47.60;;;;;;4980099;28;20038;-64
2022/04/20 13:08:07;;;;;;;6.93;2.60;;;18.10;47.50;;;;;;4986651;28;20430;-66
2022/04/20 13:10:37;;;;;;;7.63;3.10;;;18.20;49.00;;;;;;4987257;28;20045;-64
2022/04/20 13:13:04;;;;;;;5.75;3.88;;;18.30;49.00;;;;;;4990633;28;20023;-62
2022/04/20 13:15:30;;;;;;;6.38;3.28;;;18.30;48.10;;;;;;4983896;28;20092;-64
2022/04/20 13:17:59;;;;;;;6.43;3.55;;;18.40;48.90;;;;;;4981526;28;20392;-63
2022/04/20 13:20:27;;;;;;;5.28;3.55;;;18.40;47.90;;;;;;4987262;28;20041;-62
2022/04/20 13:22:53;;;;;;;6.03;3.13;;;18.40;47.90;;;;;;4984325;28;20031;-61
2022/04/20 13:28:03;;;;;;;8.20;3.40;;;18.30;48.00;;;;;;4991666;28;20407;-63